createdAt,value
2017-11-13T00:00:15.149Z,8.55
2017-11-13T00:02:44.015Z,8.77
2017-11-13T00:05:12.856Z,8.15
2017-11-13T00:07:41.712Z,8.35
2017-11-13T00:10:10.566Z,8.35
2017-11-13T00:12:40.179Z,8.00
2017-11-13T00:15:09.795Z,8.65
2017-11-13T00:17:38.656Z,8.93
2017-11-13T00:20:07.495Z,8.30
2017-11-13T00:22:36.348Z,7.60
2017-11-13T00:25:05.207Z,7.37
2017-11-13T00:27:34.842Z,5.53
2017-11-13T00:30:03.683Z,4.95
2017-11-13T00:32:32.562Z,5.20
2017-11-13T00:35:01.412Z,5.62
2017-11-13T00:37:30.249Z,4.90
2017-11-13T00:39:59.087Z,4.97
2017-11-13T00:42:27.944Z,4.00
2017-11-13T00:44:57.436Z,4.87
2017-11-13T00:47:26.312Z,4.60
2017-11-13T00:49:55.932Z,4.65
2017-11-13T00:52:24.799Z,4.60
2017-11-13T00:54:54.404Z,3.35
2017-11-13T00:57:24.012Z,3.87
2017-11-13T00:59:53.624Z,3.58
2017-11-13T01:02:23.316Z,3.78
2017-11-13T01:04:52.963Z,3.70
2017-11-13T01:07:21.800Z,5.05
2017-11-13T01:09:50.660Z,3.50
2017-11-13T01:12:19.500Z,4.10
2017-11-13T01:14:48.335Z,4.35
2017-11-13T01:17:17.171Z,4.00
2017-11-13T01:19:46.017Z,3.85
2017-11-13T01:22:15.691Z,3.87
2017-11-13T01:24:44.844Z,4.60
2017-11-13T01:27:13.680Z,4.93
2017-11-13T01:29:43.327Z,4.40
2017-11-13T01:32:12.153Z,4.55
2017-11-13T01:34:41.013Z,5.18
2017-11-13T01:37:09.841Z,4.40
2017-11-13T01:39:38.680Z,4.85
2017-11-13T01:42:07.512Z,5.03
2017-11-13T01:44:36.356Z,5.22
2017-11-13T01:47:05.970Z,5.40
2017-11-13T01:49:34.827Z,4.40
2017-11-13T01:52:03.687Z,5.57
2017-11-13T01:54:32.538Z,5.35
2017-11-13T01:57:01.261Z,5.60
2017-11-13T01:59:30.868Z,5.28
2017-11-13T02:01:59.767Z,5.60
2017-11-13T02:04:28.280Z,6.85
2017-11-13T02:06:56.317Z,5.85
2017-11-13T02:09:24.512Z,8.73
2017-11-13T02:11:53.384Z,8.80
2017-11-13T02:14:22.240Z,7.95
2017-11-13T02:16:57.209Z,7.45
2017-11-13T02:19:26.104Z,9.45
2017-11-13T02:21:54.821Z,8.93
2017-11-13T02:24:23.023Z,9.75
2017-11-13T02:26:51.536Z,9.70
2017-11-13T02:29:19.730Z,9.10
2017-11-13T02:31:48.264Z,9.68
2017-11-13T02:34:16.483Z,10.25
2017-11-13T02:36:45.036Z,9.60
2017-11-13T02:39:13.227Z,8.80
2017-11-13T02:41:41.445Z,10.73
2017-11-13T02:44:09.657Z,10.02
2017-11-13T02:46:37.910Z,10.65
2017-11-13T02:49:06.898Z,10.23
2017-11-13T02:51:35.111Z,10.25
2017-11-13T02:54:03.284Z,9.57
2017-11-13T02:56:31.804Z,11.40
2017-11-13T02:59:00.342Z,9.95
2017-11-13T03:01:29.198Z,10.98
2017-11-13T03:03:58.821Z,10.75
2017-11-13T03:06:27.666Z,9.60
2017-11-13T03:08:56.528Z,10.60
2017-11-13T03:11:25.391Z,10.10
2017-11-13T03:13:55.023Z,10.80
2017-11-13T03:16:23.876Z,9.93
2017-11-13T03:18:52.740Z,10.30
2017-11-13T03:21:21.604Z,10.93
2017-11-13T03:23:50.483Z,12.52
2017-11-13T03:26:19.345Z,12.23
2017-11-13T03:28:48.971Z,14.05
2017-11-13T03:31:17.506Z,13.10
2017-11-13T03:33:46.965Z,12.77
2017-11-13T03:36:15.832Z,13.82
2017-11-13T03:38:45.455Z,14.07
2017-11-13T03:41:15.086Z,14.48
2017-11-13T03:43:43.953Z,13.07
2017-11-13T03:46:13.579Z,13.13
2017-11-13T03:48:42.450Z,15.88
2017-11-13T03:51:12.088Z,14.65
2017-11-13T03:53:40.971Z,14.25
2017-11-13T03:56:09.845Z,15.68
2017-11-13T03:58:38.956Z,14.20
2017-11-13T04:01:07.820Z,14.63
2017-11-13T04:03:36.671Z,15.45
2017-11-13T04:06:05.537Z,13.95
2017-11-13T04:08:34.393Z,13.62
2017-11-13T04:11:03.085Z,13.50
2017-11-13T04:13:32.696Z,14.73
2017-11-13T04:16:02.830Z,13.80
2017-11-13T04:18:31.684Z,14.05
2017-11-13T04:21:00.531Z,13.80
2017-11-13T04:23:29.213Z,13.52
2017-11-13T04:25:58.053Z,15.20
2017-11-13T04:28:26.917Z,14.45
2017-11-13T04:30:55.785Z,15.00
2017-11-13T04:33:24.627Z,14.13
2017-11-13T04:35:53.472Z,14.80
2017-11-13T04:38:22.345Z,17.12
2017-11-13T04:40:51.960Z,14.13
2017-11-13T04:43:21.580Z,15.07
2017-11-13T04:45:50.425Z,16.40
2017-11-13T04:48:19.288Z,17.37
2017-11-13T04:50:48.143Z,16.50
2017-11-13T04:53:16.995Z,16.87
2017-11-13T04:55:45.839Z,16.55
2017-11-13T04:58:15.567Z,18.52
2017-11-13T05:00:44.413Z,16.55
2017-11-13T05:03:14.037Z,15.27
2017-11-13T05:05:42.286Z,16.62
2017-11-13T05:08:10.837Z,18.05
2017-11-13T05:10:39.728Z,18.40
2017-11-13T05:13:08.601Z,18.15
2017-11-13T05:15:37.477Z,17.48
2017-11-13T05:18:06.163Z,17.33
2017-11-13T05:20:34.955Z,17.35
2017-11-13T05:23:03.811Z,16.90
2017-11-13T05:25:31.997Z,17.27
2017-11-13T05:28:01.656Z,17.85
2017-11-13T05:30:30.529Z,16.27
2017-11-13T05:32:59.397Z,15.32
2017-11-13T05:35:29.930Z,15.50
2017-11-13T05:37:58.803Z,16.98
2017-11-13T05:40:28.438Z,14.43
2017-11-13T05:42:57.318Z,16.20
2017-11-13T05:45:26.934Z,16.40
2017-11-13T05:47:55.793Z,19.23
2017-11-13T05:50:24.688Z,15.95
2017-11-13T05:52:53.584Z,18.12
2017-11-13T05:55:23.121Z,19.20
2017-11-13T05:57:51.981Z,19.37
2017-11-13T06:00:20.827Z,19.87
2017-11-13T06:02:49.679Z,18.62
2017-11-13T06:05:19.298Z,20.10
2017-11-13T06:07:48.164Z,20.37
2017-11-13T06:10:17.020Z,20.80
2017-11-13T06:12:45.892Z,21.85
2017-11-13T06:15:14.743Z,19.62
2017-11-13T06:17:44.367Z,20.37
2017-11-13T06:20:13.657Z,20.62
2017-11-13T06:22:43.268Z,20.10
2017-11-13T06:25:12.892Z,20.83
2017-11-13T06:27:41.754Z,20.55
2017-11-13T06:30:11.969Z,20.42
2017-11-13T06:32:40.837Z,20.55
2017-11-13T06:35:10.131Z,30.62
2017-11-13T06:37:38.977Z,26.27
2017-11-13T06:40:07.844Z,19.02
2017-11-13T06:42:37.492Z,21.42
2017-11-13T06:45:06.349Z,18.42
2017-11-13T06:47:35.199Z,18.40
2017-11-13T06:50:04.073Z,21.25
2017-11-13T06:52:32.922Z,21.62
2017-11-13T06:55:01.778Z,21.70
2017-11-13T06:57:30.639Z,22.25
2017-11-13T06:59:59.496Z,21.73
2017-11-13T07:02:28.114Z,24.60
2017-11-13T07:04:56.971Z,25.27
2017-11-13T07:07:26.561Z,24.48
2017-11-13T07:09:55.428Z,24.30
2017-11-13T07:12:26.050Z,25.20
2017-11-13T07:14:54.899Z,26.98
2017-11-13T07:17:24.535Z,26.05
2017-11-13T07:19:53.380Z,26.08
2017-11-13T07:22:22.230Z,27.77
2017-11-13T07:24:51.102Z,24.90
2017-11-13T07:27:20.720Z,25.90
2017-11-13T07:29:49.563Z,25.73
2017-11-13T07:32:19.301Z,26.50
2017-11-13T07:34:48.958Z,26.98
2017-11-13T07:37:19.015Z,26.12
2017-11-13T07:39:49.127Z,23.73
2017-11-13T07:42:18.207Z,25.08
2017-11-13T07:44:46.896Z,24.50
2017-11-13T07:47:15.740Z,26.40
2017-11-13T07:49:44.617Z,24.35
2017-11-13T07:52:13.489Z,22.50
2017-11-13T07:54:44.247Z,24.35
2017-11-13T07:57:13.871Z,22.90
2017-11-13T07:59:42.724Z,22.70
2017-11-13T08:02:13.146Z,23.75
2017-11-13T08:04:42.001Z,23.33
2017-11-13T08:07:10.861Z,25.08
2017-11-13T08:09:41.266Z,25.65
2017-11-13T08:12:11.693Z,23.83
2017-11-13T08:14:40.540Z,24.45
2017-11-13T08:17:09.840Z,22.92
2017-11-13T08:19:38.939Z,23.50
2017-11-13T08:22:07.616Z,23.83
2017-11-13T08:24:37.255Z,24.10
2017-11-13T08:27:06.136Z,23.62
2017-11-13T08:29:34.994Z,24.83
2017-11-13T08:32:03.863Z,23.70
2017-11-13T08:34:33.320Z,24.25
2017-11-13T08:37:03.239Z,25.30
2017-11-13T08:39:32.956Z,24.80
2017-11-13T08:42:01.814Z,26.67
2017-11-13T08:44:30.672Z,26.42
2017-11-13T08:47:01.381Z,26.33
2017-11-13T08:49:30.236Z,27.30
2017-11-13T08:51:59.416Z,23.87
2017-11-13T08:54:28.265Z,26.15
2017-11-13T08:56:57.117Z,25.40
2017-11-13T08:59:26.630Z,23.73
2017-11-13T09:01:55.517Z,23.42
2017-11-13T09:04:24.378Z,22.90
2017-11-13T09:06:53.230Z,23.45
2017-11-13T09:09:22.084Z,23.83
2017-11-13T09:11:52.656Z,24.27
2017-11-13T09:14:21.509Z,21.60
2017-11-13T09:16:50.361Z,23.05
2017-11-13T09:19:19.224Z,21.90
2017-11-13T09:21:47.873Z,21.83
2017-11-13T09:24:17.680Z,21.85
2017-11-13T09:26:46.564Z,14.20
2017-11-13T09:29:17.027Z,12.93
2017-11-13T09:31:45.894Z,8.75
2017-11-13T09:34:14.759Z,10.07
2017-11-13T09:36:44.145Z,7.03
2017-11-13T09:39:13.496Z,7.60
2017-11-13T09:41:42.003Z,7.97
2017-11-13T09:44:12.346Z,8.68
2017-11-13T09:46:41.208Z,7.93
2017-11-13T09:49:10.048Z,8.35
2017-11-13T09:51:38.912Z,8.35
2017-11-13T09:54:07.783Z,8.35
2017-11-13T09:56:36.352Z,9.93
2017-11-13T09:59:05.201Z,9.20
2017-11-13T10:01:46.569Z,9.80
2017-11-13T10:04:15.468Z,16.05
2017-11-13T10:06:44.212Z,11.00
2017-11-13T10:09:15.117Z,10.43
2017-11-13T10:11:43.888Z,8.82
2017-11-13T10:14:16.834Z,9.63
2017-11-13T10:16:45.572Z,11.10
2017-11-13T10:19:15.032Z,10.70
2017-11-13T10:21:43.944Z,9.50
2017-11-13T10:24:13.436Z,11.38
2017-11-13T10:26:41.841Z,12.40
2017-11-13T10:29:11.125Z,13.07
2017-11-13T10:31:39.819Z,13.57
2017-11-13T10:34:08.512Z,13.35
2017-11-13T10:36:37.373Z,12.60
2017-11-13T10:39:06.988Z,14.85
2017-11-13T10:41:35.877Z,17.98
2017-11-13T10:44:04.767Z,16.90
2017-11-13T10:46:34.433Z,18.48
2017-11-13T10:49:04.232Z,19.70
2017-11-13T10:51:36.103Z,18.17
2017-11-13T10:54:08.828Z,18.98
2017-11-13T10:56:38.912Z,18.05
2017-11-13T10:59:09.650Z,19.40
2017-11-13T11:01:38.914Z,18.27
2017-11-13T11:04:10.017Z,17.98
2017-11-13T11:06:39.687Z,17.42
2017-11-13T11:09:09.721Z,20.10
2017-11-13T11:11:38.961Z,18.60
2017-11-13T11:14:09.916Z,16.45
2017-11-13T11:16:44.692Z,16.27
2017-11-13T11:19:29.063Z,17.90
2017-11-13T11:22:00.223Z,15.60
2017-11-13T11:24:29.807Z,18.48
2017-11-13T11:27:14.319Z,17.05
2017-11-13T11:29:44.695Z,17.95
2017-11-13T11:32:16.046Z,16.25
2017-11-13T11:37:41.062Z,16.30
2017-11-13T11:40:09.849Z,17.12
2017-11-13T11:42:41.414Z,14.75
2017-11-13T11:45:27.208Z,15.10
2017-11-13T11:47:57.826Z,15.73
2017-11-13T11:50:27.334Z,15.85
2017-11-13T11:52:56.036Z,15.95
2017-11-13T11:55:40.570Z,17.12
2017-11-13T11:58:09.989Z,16.37
2017-11-13T12:00:38.468Z,16.10
2017-11-13T12:03:07.926Z,16.62
2017-11-13T12:05:36.806Z,16.70
2017-11-13T12:08:06.140Z,15.30
2017-11-13T12:10:35.793Z,14.90
2017-11-13T12:13:04.724Z,15.35
2017-11-13T12:15:33.593Z,14.35
2017-11-13T12:18:02.446Z,14.55
2017-11-13T12:20:31.143Z,17.12
2017-11-13T12:23:00.022Z,13.27
2017-11-13T12:25:28.998Z,12.73
2017-11-13T12:27:58.627Z,12.80
2017-11-13T12:30:27.504Z,13.65
2017-11-13T12:32:57.132Z,13.45
2017-11-13T12:35:26.000Z,12.18
2017-11-13T12:37:55.621Z,14.25
2017-11-13T12:40:25.278Z,13.55
2017-11-13T12:42:55.090Z,12.27
2017-11-13T12:45:23.975Z,13.07
2017-11-13T12:47:52.869Z,11.45
2017-11-13T12:50:21.736Z,14.87
2017-11-13T12:52:50.381Z,13.55
2017-11-13T12:55:20.028Z,10.77
2017-11-13T12:57:48.230Z,11.73
2017-11-13T13:00:16.335Z,11.43
2017-11-13T13:02:46.010Z,15.65
2017-11-13T13:05:15.871Z,13.75
2017-11-13T13:07:44.785Z,13.27
2017-11-13T13:10:13.647Z,11.00
2017-11-13T13:12:43.412Z,12.68
2017-11-13T13:15:12.274Z,10.52
2017-11-13T13:17:41.157Z,11.45
2017-11-13T13:20:11.089Z,10.20
2017-11-13T13:22:39.634Z,9.20
2017-11-13T13:25:08.498Z,9.95
2017-11-13T13:27:37.955Z,10.20
2017-11-13T13:30:06.843Z,9.00
2017-11-13T13:32:37.296Z,9.60
2017-11-13T13:35:06.024Z,10.02
2017-11-13T13:37:34.720Z,10.30
2017-11-13T13:40:04.183Z,10.40
2017-11-13T13:42:33.045Z,9.90
2017-11-13T13:45:01.715Z,10.40
2017-11-13T13:47:32.380Z,8.98
2017-11-13T13:50:02.026Z,9.52
2017-11-13T13:52:31.597Z,8.73
2017-11-13T13:55:00.469Z,10.10
2017-11-13T13:57:30.736Z,9.10
2017-11-13T13:59:59.606Z,8.32
2017-11-13T14:02:28.461Z,8.27
2017-11-13T14:04:57.361Z,8.85
2017-11-13T14:07:27.213Z,7.90
2017-11-13T14:09:57.610Z,8.98
2017-11-13T14:12:26.495Z,9.13
2017-11-13T14:14:55.383Z,9.15
2017-11-13T14:17:27.506Z,8.07
2017-11-13T14:19:56.367Z,8.32
2017-11-13T14:22:26.215Z,9.50
2017-11-13T14:24:55.092Z,9.55
2017-11-13T14:27:24.702Z,8.88
2017-11-13T14:29:53.414Z,8.57
2017-11-13T14:32:22.287Z,9.43
2017-11-13T14:34:51.155Z,8.32
2017-11-13T14:37:20.013Z,8.80
2017-11-13T14:39:50.561Z,8.90
2017-11-13T14:42:19.650Z,9.15
2017-11-13T14:44:48.548Z,9.43
2017-11-13T14:47:19.994Z,9.10
2017-11-13T14:49:48.867Z,9.75
2017-11-13T14:52:17.721Z,8.95
2017-11-13T14:54:47.560Z,8.05
2017-11-13T14:57:16.501Z,11.00
2017-11-13T14:59:45.372Z,10.20
2017-11-13T15:02:14.986Z,8.55
2017-11-13T15:04:43.858Z,9.35
2017-11-13T15:07:13.732Z,8.68
2017-11-13T15:09:42.603Z,9.50
2017-11-13T15:12:11.468Z,8.82
2017-11-13T15:14:40.339Z,9.07
2017-11-13T15:17:09.223Z,8.75
2017-11-13T15:19:38.072Z,9.95
2017-11-13T15:22:07.389Z,8.27
2017-11-13T15:24:37.029Z,7.75
2017-11-13T15:27:05.884Z,8.77
2017-11-13T15:29:34.570Z,8.63
2017-11-13T15:32:04.030Z,9.60
2017-11-13T15:34:34.091Z,9.65
2017-11-13T15:37:03.191Z,7.95
2017-11-13T15:39:40.048Z,9.15
2017-11-13T15:42:08.895Z,9.15
2017-11-13T15:44:37.430Z,10.13
2017-11-13T15:47:06.301Z,9.25
2017-11-13T15:49:36.930Z,9.30
2017-11-13T15:52:07.085Z,9.40
2017-11-13T15:54:35.946Z,9.02
2017-11-13T15:57:05.532Z,8.30
2017-11-13T15:59:34.845Z,8.40
2017-11-13T16:02:08.260Z,7.72
2017-11-13T16:04:37.120Z,9.15
2017-11-13T16:07:05.971Z,8.07
2017-11-13T16:09:34.864Z,9.50
2017-11-13T16:12:04.299Z,9.80
2017-11-13T16:14:33.166Z,10.15
2017-11-13T16:17:02.035Z,8.98
2017-11-13T16:19:30.903Z,9.85
2017-11-13T16:22:02.153Z,9.43
2017-11-13T16:24:31.024Z,9.68
2017-11-13T16:26:59.881Z,9.80
2017-11-13T16:29:28.563Z,9.50
2017-11-13T16:31:58.280Z,9.50
2017-11-13T16:34:26.987Z,10.82
2017-11-13T16:36:55.839Z,10.80
2017-11-13T16:39:24.521Z,10.50
2017-11-13T16:41:53.388Z,10.88
2017-11-13T16:44:22.259Z,9.55
2017-11-13T16:46:51.608Z,11.18
2017-11-13T16:49:20.501Z,10.50
2017-11-13T16:51:49.368Z,9.95
2017-11-13T16:54:18.251Z,10.48
2017-11-13T16:56:49.778Z,10.13
2017-11-13T16:59:18.716Z,11.35
2017-11-13T17:01:47.595Z,11.57
2017-11-13T17:04:16.467Z,11.70
2017-11-13T17:06:46.096Z,12.27
2017-11-13T17:09:14.956Z,13.20
2017-11-13T17:11:43.808Z,13.30
2017-11-13T17:14:12.667Z,12.20
2017-11-13T17:16:42.507Z,12.30
2017-11-13T17:19:11.369Z,13.00
2017-11-13T17:21:40.230Z,12.07
2017-11-13T17:24:12.333Z,12.20
2017-11-13T17:26:41.311Z,11.63
2017-11-13T17:29:10.928Z,12.40
2017-11-13T17:31:40.585Z,12.35
2017-11-13T17:34:09.422Z,14.57
2017-11-13T17:36:39.050Z,12.70
2017-11-13T17:39:07.938Z,13.70
2017-11-13T17:41:36.791Z,13.65
2017-11-13T17:44:05.893Z,14.15
2017-11-13T17:46:34.770Z,13.48
2017-11-13T17:49:03.629Z,13.73
2017-11-13T17:51:32.318Z,15.48
2017-11-13T17:54:01.034Z,13.65
2017-11-13T17:56:29.738Z,14.65
2017-11-13T17:59:00.192Z,13.45
2017-11-13T18:01:28.915Z,16.37
2017-11-13T18:03:57.782Z,16.05
2017-11-13T18:06:26.492Z,15.52
2017-11-13T18:08:55.187Z,16.02
2017-11-13T18:11:24.042Z,15.88
2017-11-13T18:13:52.735Z,15.68
2017-11-13T18:16:21.408Z,15.18
2017-11-13T18:18:50.856Z,17.12
2017-11-13T18:21:19.926Z,16.52
2017-11-13T18:23:48.798Z,15.70
2017-11-13T18:26:18.421Z,15.43
2017-11-13T18:28:47.289Z,16.87
2017-11-13T18:31:17.746Z,16.00
2017-11-13T18:33:46.610Z,15.45
2017-11-13T18:36:16.237Z,16.80
2017-11-13T18:38:45.096Z,15.65
2017-11-13T18:41:13.940Z,15.85
2017-11-13T18:43:42.800Z,15.88
2017-11-13T18:46:11.683Z,14.38
2017-11-13T18:48:41.332Z,15.88
2017-11-13T18:51:10.221Z,14.70
2017-11-13T18:53:39.087Z,14.77
2017-11-13T18:56:09.511Z,13.73
2017-11-13T18:58:39.237Z,14.13
2017-11-13T19:01:08.093Z,14.87
2017-11-13T19:03:36.989Z,14.18
2017-11-13T19:06:06.618Z,14.23
2017-11-13T19:08:36.543Z,13.65
2017-11-13T19:11:06.522Z,12.85
2017-11-13T19:13:35.965Z,12.13
2017-11-13T19:16:04.663Z,12.73
2017-11-13T19:18:35.671Z,12.50
2017-11-13T19:21:04.467Z,13.45
2017-11-13T19:23:37.303Z,14.40
2017-11-13T19:26:06.445Z,13.10
2017-11-13T19:28:36.751Z,13.30
2017-11-13T19:31:05.810Z,11.90
2017-11-13T19:33:36.790Z,12.15
2017-11-13T19:36:06.929Z,11.77
2017-11-13T19:38:38.458Z,11.82
2017-11-13T19:41:06.940Z,13.10
2017-11-13T19:43:37.636Z,11.38
2017-11-13T19:46:07.620Z,10.02
2017-11-13T19:48:37.634Z,12.18
2017-11-13T19:51:07.695Z,10.52
2017-11-13T19:53:38.537Z,11.40
2017-11-13T19:56:08.544Z,10.60
2017-11-13T19:58:40.471Z,11.10
2017-11-13T20:01:11.556Z,12.20
2017-11-13T20:03:41.032Z,10.80
2017-11-13T20:06:10.587Z,11.10
2017-11-13T20:08:40.739Z,11.63
2017-11-13T20:11:10.361Z,10.43
2017-11-13T20:13:39.276Z,10.52
2017-11-13T20:16:08.168Z,9.77
2017-11-13T20:18:37.007Z,10.73
2017-11-13T20:21:05.942Z,11.60
2017-11-13T20:23:34.790Z,10.77
2017-11-13T20:26:03.648Z,11.52
2017-11-13T20:28:34.901Z,12.32
2017-11-13T20:31:03.786Z,10.68
2017-11-13T20:33:32.728Z,12.13
2017-11-13T20:36:03.956Z,11.30
2017-11-13T20:38:37.127Z,12.82
2017-11-13T20:41:05.985Z,12.65
2017-11-13T20:43:35.653Z,12.57
2017-11-13T20:46:04.549Z,12.68
2017-11-13T20:48:37.521Z,18.45
2017-11-13T20:51:06.401Z,20.48
2017-11-13T20:53:35.270Z,13.05
2017-11-13T20:56:04.124Z,12.63
2017-11-13T20:58:33.742Z,12.48
2017-11-13T21:01:03.198Z,13.10
2017-11-13T21:03:32.073Z,13.23
2017-11-13T21:06:00.937Z,13.30
2017-11-13T21:08:29.804Z,13.85
2017-11-13T21:10:59.674Z,13.25
2017-11-13T21:13:28.540Z,14.00
2017-11-13T21:15:57.395Z,14.20
2017-11-13T21:18:25.924Z,13.52
2017-11-13T21:20:55.648Z,14.68
2017-11-13T21:23:24.502Z,14.27
2017-11-13T21:25:54.120Z,14.15
2017-11-13T21:28:22.973Z,15.90
2017-11-13T21:30:51.831Z,12.82
2017-11-13T21:33:20.675Z,15.88
2017-11-13T21:35:50.288Z,16.95
2017-11-13T21:38:19.945Z,15.18
2017-11-13T21:40:48.814Z,14.30
2017-11-13T21:43:17.666Z,14.15
2017-11-13T21:45:46.516Z,15.18
2017-11-13T21:48:15.389Z,16.95
2017-11-13T21:50:44.069Z,15.60
2017-11-13T21:53:12.916Z,15.25
2017-11-13T21:55:41.783Z,15.45
2017-11-13T21:58:10.673Z,16.05
2017-11-13T22:00:39.521Z,15.55
2017-11-13T22:03:09.140Z,16.50
2017-11-13T22:05:38.861Z,16.10
2017-11-13T22:08:07.752Z,17.90
2017-11-13T22:10:36.616Z,17.90
2017-11-13T22:13:06.256Z,17.70
2017-11-13T22:15:34.787Z,17.17
2017-11-13T22:18:03.464Z,16.87
2017-11-13T22:20:32.319Z,16.80
2017-11-13T22:23:01.753Z,18.40
2017-11-13T22:25:30.609Z,15.93
2017-11-13T22:28:00.393Z,18.40
2017-11-13T22:30:30.010Z,18.55
2017-11-13T22:32:58.873Z,16.85
2017-11-13T22:35:27.730Z,17.75
2017-11-13T22:37:56.587Z,18.42
2017-11-13T22:40:27.087Z,17.90
2017-11-13T22:42:56.027Z,18.23
2017-11-13T22:45:25.732Z,17.98
2017-11-13T22:47:54.579Z,19.00
2017-11-13T22:50:23.440Z,16.65
2017-11-13T22:52:52.294Z,19.60
2017-11-13T22:55:21.146Z,19.98
2017-11-13T22:57:49.995Z,17.48
2017-11-13T23:00:18.860Z,18.75
2017-11-13T23:02:47.711Z,17.35
2017-11-13T23:05:16.571Z,17.80
2017-11-13T23:07:45.414Z,17.35
2017-11-13T23:10:14.252Z,18.05
2017-11-13T23:12:43.096Z,17.65
2017-11-13T23:15:12.715Z,18.45
2017-11-13T23:17:42.343Z,20.88
2017-11-13T23:20:11.184Z,17.00
2017-11-13T23:22:40.678Z,17.05
2017-11-13T23:25:09.531Z,17.77
2017-11-13T23:27:38.379Z,15.75
2017-11-13T23:30:07.239Z,18.40
2017-11-13T23:32:36.106Z,17.25
2017-11-13T23:35:04.956Z,17.95
2017-11-13T23:37:33.808Z,15.30
2017-11-13T23:40:02.673Z,18.95
2017-11-13T23:42:31.342Z,17.20
2017-11-13T23:45:00.800Z,18.85
2017-11-13T23:47:29.467Z,20.62
2017-11-13T23:49:58.144Z,16.77
2017-11-13T23:52:27.009Z,19.10
2017-11-13T23:54:56.468Z,17.35
2017-11-13T23:57:25.321Z,18.35
2017-11-13T23:59:54.164Z,16.83
